Time;durP1;ratioP1;P1;durP2;ratioP2;P2;SDS_P1;SDS_P2;PMS_P1;PMS_P2;Temp;Humidity;BMP_temperature;BMP_pressure;BME280_temperature;BME280_humidity;BME280_pressure;Samples;Min_cycle;Max_cycle;Signal;HPM_P1;HPM_P2
2021/04/21 00:00:51;;;;;;;;;;;8.20;99.90;;;;;;5081623;28;19928;-80
2021/04/21 00:03:19;;;;;;;;;;;8.30;99.90;;;;;;5063474;28;19928;-80
2021/04/21 00:05:47;;;;;;;;;;;8.20;99.90;;;;;;5053652;28;19925;-80
2021/04/21 00:08:15;;;;;;;;;;;8.20;99.90;;;;;;5069868;28;19936;-80
2021/04/21 00:10:43;;;;;;;;;;;8.20;99.90;;;;;;5064671;28;19925;-80
2021/04/21 00:13:10;;;;;;;;;;;8.20;99.90;;;;;;5077752;28;20375;-80
2021/04/21 00:15:38;;;;;;;;;;;8.20;99.90;;;;;;5056821;28;19932;-80
2021/04/21 00:18:06;;;;;;;;;;;8.10;99.90;;;;;;5070049;28;19932;-80
2021/04/21 00:20:33;;;;;;;;;;;8.10;99.90;;;;;;5060289;28;19932;-80
2021/04/21 00:23:01;;;;;;;;;;;8.10;99.90;;;;;;5087852;28;19939;-80
2021/04/21 00:25:30;;;;;;;;;;;8.10;99.90;;;;;;5075356;28;19931;-80
2021/04/21 00:28:05;;;;;;;;;;;8.10;99.90;;;;;;5077090;28;19983;-80
2021/04/21 00:30:33;;;;;;;;;;;8.10;99.90;;;;;;5073772;28;19925;-80
2021/04/21 00:33:00;;;;;;;;;;;8.00;99.90;;;;;;5074259;28;19936;-80
2021/04/21 00:35:29;;;;;;;;;;;8.00;99.90;;;;;;5073196;28;19925;-80
2021/04/21 00:37:59;;;;;;;;;;;8.00;99.90;;;;;;5073872;28;20339;-80
2021/04/21 00:40:36;;;;;;;;;;;7.80;99.90;;;;;;5065703;28;19932;-80
2021/04/21 00:43:06;;;;;;;;;;;7.80;99.90;;;;;;5073901;28;19931;-80
2021/04/21 00:45:46;;;;;;;;;;;7.80;99.90;;;;;;5073198;28;19935;-80
2021/04/21 00:48:16;;;;;;;;;;;7.70;99.90;;;;;;5059433;28;19928;-81
2021/04/21 00:50:46;;;;;;;;;;;7.70;99.90;;;;;;5070193;28;19929;-80
2021/04/21 00:53:20;;;;;;;;;;;7.70;99.90;;;;;;5079932;28;19928;-79
2021/04/21 00:56:01;;;;;;;;;;;7.60;99.90;;;;;;4709084;28;9999939;-80
2021/04/21 00:58:48;;;;;;;;;;;7.60;99.90;;;;;;5065633;28;19935;-81
2021/04/21 01:01:16;;;;;;;;;;;7.50;99.90;;;;;;5068163;28;19958;-80
2021/04/21 01:03:44;;;;;;;;;;;7.50;99.90;;;;;;5052487;28;19931;-80
2021/04/21 01:06:17;;;;;;;;;;;7.50;99.90;;;;;;5060881;28;19925;-81
2021/04/21 01:08:47;;;;;;;;;;;7.60;99.90;;;;;;5044842;28;19935;-80
2021/04/21 01:11:23;;;;;;;;;;;7.60;99.90;;;;;;5071359;28;19933;-81
2021/04/21 01:13:53;;;;;;;;;;;7.70;99.90;;;;;;5051560;28;19925;-80
2021/04/21 01:16:26;;;;;;;;;;;7.50;99.90;;;;;;5054815;28;19924;-81
2021/04/21 01:18:56;;;;;;;;;;;7.40;99.90;;;;;;5064138;28;19931;-81
2021/04/21 01:21:29;;;;;;;;;;;7.40;99.90;;;;;;5063825;28;20288;-82
2021/04/21 01:24:16;;;;;;;;;;;7.30;99.90;;;;;;5084530;28;20292;-80
2021/04/21 01:26:49;;;;;;;;;;;7.30;99.90;;;;;;5060464;28;19924;-81
2021/04/21 01:29:20;;;;;;;;;;;7.20;99.90;;;;;;5034101;28;20157;-81
2021/04/21 01:31:49;;;;;;;;;;;7.40;99.90;;;;;;5063555;28;19924;-81
2021/04/21 01:34:19;;;;;;;;;;;7.20;99.90;;;;;;5071708;28;19925;-82
2021/04/21 01:36:46;;;;;;;;;;;7.30;99.90;;;;;;5071541;28;19925;-80
2021/04/21 01:39:16;;;;;;;;;;;7.30;99.90;;;;;;5071018;28;19947;-80
2021/04/21 01:41:46;;;;;;;;;;;7.30;99.90;;;;;;5073913;28;19924;-81
2021/04/21 01:44:15;;;;;;;;;;;7.30;99.90;;;;;;5071138;28;19925;-80
2021/04/21 01:46:44;;;;;;;;;;;7.20;99.90;;;;;;5070219;28;19924;-80
2021/04/21 01:49:17;;;;;;;;;;;7.20;99.90;;;;;;5055878;28;20343;-80
2021/04/21 01:51:44;;;;;;;;;;;7.20;99.90;;;;;;5073921;28;19952;-81
2021/04/21 01:54:14;;;;;;;;;;;7.10;99.90;;;;;;5078681;28;19924;-80
2021/04/21 01:56:46;;;;;;;;;;;7.10;99.90;;;;;;5070531;28;20504;-81
2021/04/21 01:59:31;;;;;;;;;;;7.10;99.90;;;;;;5068243;28;19924;-82
2021/04/21 02:02:03;;;;;;;;;;;7.10;99.90;;;;;;5068548;28;19933;-81
2021/04/21 02:04:30;;;;;;;;;;;7.00;99.90;;;;;;5065388;28;19929;-80
2021/04/21 02:07:00;;;;;;;;;;;7.10;99.90;;;;;;5068425;28;20324;-81
2021/04/21 02:09:40;;;;;;;;;;;7.00;99.90;;;;;;5074274;28;20401;-81
2021/04/21 02:12:20;;;;;;;;;;;7.00;99.90;;;;;;5052221;28;19925;-81
2021/04/21 02:15:08;;;;;;;;;;;6.90;99.90;;;;;;5046206;28;19932;-79
2021/04/21 02:17:56;;;;;;;;;;;6.80;99.90;;;;;;5073160;28;19932;-80
2021/04/21 02:20:32;;;;;;;;;;;6.90;99.90;;;;;;5072866;28;19948;-81
2021/04/21 02:22:59;;;;;;;;;;;6.90;99.90;;;;;;5084288;28;19932;-80
2021/04/21 02:25:45;;;;;;;;;;;6.80;99.90;;;;;;5075894;28;19925;-80
2021/04/21 02:28:15;;;;;;;;;;;6.80;99.90;;;;;;5056049;28;19925;-81
2021/04/21 02:30:42;;;;;;;;;;;6.80;99.90;;;;;;5060091;28;19931;-80
2021/04/21 02:33:28;;;;;;;;;;;6.90;99.90;;;;;;5077203;28;20407;-81
2021/04/21 02:35:58;;;;;;;;;;;6.70;99.90;;;;;;5088745;27;19932;-81
2021/04/21 02:38:28;;;;;;;;;;;6.70;99.90;;;;;;5066818;28;19932;-81
2021/04/21 02:41:00;;;;;;;;;;;6.60;99.90;;;;;;5075551;28;19924;-80
2021/04/21 02:43:37;;;;;;;;;;;6.70;99.90;;;;;;5074779;28;19940;-80
2021/04/21 02:46:11;;;;;;;;;;;6.60;99.90;;;;;;5073239;28;19933;-82
2021/04/21 02:49:04;;;;;;;;;;;6.60;99.90;;;;;;5064342;28;20307;-81
2021/04/21 02:51:46;;;;;;;;;;;6.60;99.90;;;;;;5070906;28;19932;-81
2021/04/21 02:54:19;;;;;;;;;;;6.50;99.90;;;;;;5067686;28;19924;-81
2021/04/21 02:56:49;;;;;;;;;;;6.50;99.90;;;;;;5058609;28;19931;-80
2021/04/21 02:59:25;;;;;;;;;;;6.50;99.90;;;;;;5068690;28;19926;-81
2021/04/21 03:02:01;;;;;;;;;;;6.50;99.90;;;;;;5060166;28;19946;-80
2021/04/21 03:04:37;;;;;;;;;;;6.40;99.90;;;;;;5066774;28;19924;-80
2021/04/21 03:07:06;;;;;;;;;;;6.30;99.90;;;;;;5054500;28;20370;-80
2021/04/21 03:09:44;;;;;;;;;;;6.40;99.90;;;;;;5071082;28;20525;-80
2021/04/21 03:12:12;;;;;;;;;;;6.30;99.90;;;;;;5069453;28;19924;-80
2021/04/21 03:14:44;;;;;;;;;;;6.30;99.90;;;;;;5070385;28;19925;-81
2021/04/21 03:17:12;;;;;;;;;;;6.20;99.90;;;;;;5059414;28;19925;-80
2021/04/21 03:19:45;;;;;;;;;;;6.20;99.90;;;;;;5071596;28;19928;-80
2021/04/21 03:22:14;;;;;;;;;;;6.30;99.90;;;;;;5074491;28;19931;-81
2021/04/21 03:24:43;;;;;;;;;;;6.20;99.90;;;;;;5080520;28;19925;-80
2021/04/21 03:27:11;;;;;;;;;;;6.20;99.90;;;;;;5074962;28;19920;-81
2021/04/21 03:29:43;;;;;;;;;;;6.30;99.90;;;;;;5075263;28;20315;-82
2021/04/21 03:32:24;;;;;;;;;;;6.20;99.90;;;;;;5069274;28;19949;-81
2021/04/21 03:34:52;;;;;;;;;;;6.20;99.90;;;;;;5056278;28;19925;-83
2021/04/21 03:37:22;;;;;;;;;;;6.30;99.90;;;;;;5075941;28;19928;-81
2021/04/21 03:39:51;;;;;;;;;;;6.20;99.90;;;;;;5061718;28;19954;-80
2021/04/21 03:42:18;;;;;;;;;;;6.30;99.90;;;;;;5074353;28;19931;-81
2021/04/21 03:44:45;;;;;;;;;;;6.10;99.90;;;;;;5074710;28;19933;-81
2021/04/21 03:47:12;;;;;;;;;;;6.10;99.90;;;;;;5074297;28;19925;-82
2021/04/21 03:49:42;;;;;;;;;;;6.20;99.90;;;;;;5074408;28;19935;-81
2021/04/21 03:52:11;;;;;;;;;;;6.10;99.90;;;;;;5077482;28;19939;-80
2021/04/21 03:54:39;;;;;;;;;;;6.00;99.90;;;;;;5080419;28;19935;-81
2021/04/21 03:57:08;;;;;;;;;;;6.10;99.90;;;;;;5056557;28;19925;-82
2021/04/21 03:59:35;;;;;;;;;;;;;;;;;;5071075;28;19936;-82
2021/04/21 04:02:04;;;;;;;;;;;6.10;99.90;;;;;;5064561;28;19925;-81
2021/04/21 04:04:32;;;;;;;;;;;6.00;99.90;;;;;;5068332;28;19924;-82
2021/04/21 04:07:03;;;;;;;;;;;6.00;99.90;;;;;;5058120;28;20292;-81
2021/04/21 04:09:31;;;;;;;;;;;6.00;99.90;;;;;;5058450;28;20426;-81
2021/04/21 04:12:00;;;;;;;;;;;6.00;99.90;;;;;;5081775;28;19924;-83
2021/04/21 04:14:30;;;;;;;;;;;6.00;99.90;;;;;;5059082;28;19935;-83
2021/04/21 04:16:58;;;;;;;;;;;6.00;99.90;;;;;;5076664;28;19932;-80
2021/04/21 04:19:27;;;;;;;;;;;6.10;99.90;;;;;;5069501;28;19928;-80
2021/04/21 04:22:04;;;;;;;;;;;6.00;99.90;;;;;;5077645;28;19928;-81
2021/04/21 04:24:35;;;;;;;;;;;5.80;99.90;;;;;;5061491;28;19924;-81
2021/04/21 04:27:05;;;;;;;;;;;5.90;99.90;;;;;;5068235;28;20268;-80
2021/04/21 04:29:32;;;;;;;;;;;5.90;99.90;;;;;;5076689;28;19924;-81
2021/04/21 04:32:01;;;;;;;;;;;5.90;99.90;;;;;;5073445;28;19939;-81
2021/04/21 04:34:29;;;;;;;;;;;5.90;99.90;;;;;;5063329;28;20652;-80
2021/04/21 04:36:56;;;;;;;;;;;6.00;99.90;;;;;;5074097;28;20414;-80
2021/04/21 04:39:23;;;;;;;;;;;5.80;99.90;;;;;;5062304;28;19925;-82
2021/04/21 04:41:51;;;;;;;;;;;5.80;99.90;;;;;;5082446;28;19931;-80
2021/04/21 04:44:18;;;;;;;;;;;5.90;99.90;;;;;;5074289;28;19924;-82
2021/04/21 04:46:49;;;;;;;;;;;5.90;99.90;;;;;;5075034;28;19925;-81
2021/04/21 04:49:17;;;;;;;;;;;5.80;99.90;;;;;;5072099;28;19932;-81
2021/04/21 04:51:45;;;;;;;;;;;5.90;99.90;;;;;;5081391;28;19931;-84
2021/04/21 04:54:13;;;;;;;;;;;5.90;99.90;;;;;;5080813;28;19931;-81
2021/04/21 04:56:45;;;;;;;;;;;7.40;99.90;;;;;;5061760;28;19932;-81
2021/04/21 04:59:17;;;;;;;;;;;5.80;99.90;;;;;;5053815;28;19924;-80
2021/04/21 05:01:58;;;;;;;;;;;5.90;99.90;;;;;;5053767;28;19929;-80
2021/04/21 05:04:40;;;;;;;;;;;5.80;99.90;;;;;;5063809;28;20312;-81
2021/04/21 05:07:07;;;;;;;;;;;5.90;99.90;;;;;;5047727;28;19936;-81
2021/04/21 05:09:43;;;;;;;;;;;5.70;99.90;;;;;;5051801;28;19929;-81
2021/04/21 05:12:13;;;;;;;;;;;5.70;99.90;;;;;;5042132;28;19943;-80
2021/04/21 05:14:45;;;;;;;;;;;5.80;99.90;;;;;;5054570;28;19925;-82
2021/04/21 05:17:18;;;;;;;;;;;5.90;99.90;;;;;;5065857;28;19932;-79
2021/04/21 05:20:06;;;;;;;;;;;5.90;99.90;;;;;;5070818;28;19932;-81
2021/04/21 05:22:52;;;;;;;;;;;6.00;99.90;;;;;;5067043;28;20426;-81
2021/04/21 05:25:38;;;;;;;;;;;6.20;99.90;;;;;;5052755;28;19932;-80
2021/04/21 05:28:19;;;;;;;;;;;6.10;99.90;;;;;;5066273;28;19940;-80
2021/04/21 05:31:05;;;;;;;;;;;6.00;99.90;;;;;;5057274;28;19940;-81
2021/04/21 05:33:51;;;;;;;;;;;6.10;99.90;;;;;;5053102;28;20384;-81
2021/04/21 05:36:24;;;;;;;;;;;6.10;99.90;;;;;;5061155;28;19928;-80
2021/04/21 05:39:03;;;;;;;;;;;6.20;99.90;;;;;;5050875;28;19932;-80
2021/04/21 05:41:49;;;;;;;;;;;6.20;99.90;;;;;;5061692;28;19924;-80
2021/04/21 05:44:31;;;;;;;;;;;6.30;99.90;;;;;;5056101;28;19925;-81
2021/04/21 05:46:58;;;;;;;;;;;6.40;99.90;;;;;;5058091;28;19925;-80
2021/04/21 05:49:28;;;;;;;;;;;6.40;99.90;;;;;;5048036;28;20308;-81
2021/04/21 05:52:14;;;;;;;;;;;6.50;99.90;;;;;;5068493;28;19924;-81
2021/04/21 05:54:41;;;;;;;;;;;6.50;99.90;;;;;;5055485;28;20388;-80
2021/04/21 05:57:14;;;;;;;;;;;6.60;99.90;;;;;;5059871;28;19929;-79
2021/04/21 05:59:59;;;;;;;;;;;6.60;99.90;;;;;;5059696;28;19935;-80
2021/04/21 06:02:29;;;;;;;;;;;6.70;99.90;;;;;;5062785;28;19935;-81
2021/04/21 06:05:09;;;;;;;;;;;6.70;99.90;;;;;;5071297;28;20236;-81
2021/04/21 06:07:36;;;;;;;;;;;;;;;;;;5062715;28;19929;-79
2021/04/21 06:10:23;;;;;;;;;;;6.80;99.90;;;;;;5052877;28;20287;-80
2021/04/21 06:12:54;;;;;;;;;;;7.00;99.90;;;;;;5047054;28;19925;-80
2021/04/21 06:15:22;;;;;;;;;;;6.90;99.90;;;;;;5049727;28;19931;-80
2021/04/21 06:17:58;;;;;;;;;;;7.10;99.90;;;;;;5060729;28;19932;-80
2021/04/21 06:20:33;;;;;;;;;;;7.20;99.90;;;;;;5048137;28;20486;-81
2021/04/21 06:23:07;;;;;;;;;;;7.10;99.90;;;;;;5068832;28;19925;-87
2021/04/21 06:25:35;;;;;;;;;;;7.20;99.90;;;;;;5048212;28;19936;-79
2021/04/21 06:28:09;;;;;;;;;;;7.30;99.90;;;;;;5045475;28;19924;-80
2021/04/21 06:30:36;;;;;;;;;;;7.40;99.90;;;;;;5051289;28;19924;-86
2021/04/21 06:33:04;;;;;;;;;;;7.40;99.90;;;;;;5063147;28;19936;-81
2021/04/21 06:35:32;;;;;;;;;;;7.50;99.90;;;;;;5050982;28;19955;-81
2021/04/21 06:37:59;;;;;;;;;;;7.60;99.90;;;;;;5058021;28;20463;-80
2021/04/21 06:40:27;;;;;;;;;;;7.60;99.90;;;;;;5062026;28;20395;-84
2021/04/21 06:42:55;;;;;;;;;;;7.60;99.90;;;;;;5049521;28;19929;-91
2021/04/21 06:45:33;;;;;;;;;;;7.80;99.90;;;;;;5057696;28;19936;-84
2021/04/21 06:48:01;;;;;;;;;;;7.90;99.90;;;;;;5046582;28;20031;-84
2021/04/21 06:50:28;;;;;;;;;;;7.80;99.90;;;;;;5050869;28;19924;-86
2021/04/21 06:52:59;;;;;;;;;;;8.00;99.90;;;;;;5060484;28;19929;-90
2021/04/21 06:55:27;;;;;;;;;;;;;;;;;;5064639;28;20453;-86
2021/04/21 06:57:54;;;;;;;;;;;8.10;99.90;;;;;;5076494;28;19928;-87
2021/04/21 07:00:23;;;;;;;;;;;8.20;99.90;;;;;;5069606;28;19950;-86
2021/04/21 07:02:54;;;;;;;;;;;8.20;99.90;;;;;;5060531;28;19936;-87
2021/04/21 07:05:39;;;;;;;;;;;8.30;99.90;;;;;;5059400;28;20392;-89
2021/04/21 07:08:08;;;;;;;;;;;8.30;99.90;;;;;;5053149;28;19928;-90
2021/04/21 07:10:36;;;;;;;;;;;8.40;99.90;;;;;;5052317;28;19928;-88
2021/04/21 07:13:05;;;;;;;;;;;8.40;99.90;;;;;;5065309;28;19932;-88
2021/04/21 07:15:34;;;;;;;;;;;8.60;99.90;;;;;;5040957;28;20046;-89
2021/04/21 07:18:02;;;;;;;;;;;8.60;99.90;;;;;;5061707;28;19955;-88
2021/04/21 07:20:29;;;;;;;;;;;8.70;99.90;;;;;;5035517;28;19959;-87
2021/04/21 07:22:58;;;;;;;;;;;8.80;99.90;;;;;;5064042;28;19924;-84
2021/04/21 07:25:25;;;;;;;;;;;8.70;99.90;;;;;;5055833;28;20265;-88
2021/04/21 07:27:53;;;;;;;;;;;8.90;99.90;;;;;;5059991;28;20435;-86
2021/04/21 07:30:24;;;;;;;;;;;9.00;99.90;;;;;;5051678;28;19924;-84
2021/04/21 07:32:52;;;;;;;;;;;9.10;99.90;;;;;;5063785;28;20106;-86
2021/04/21 07:35:21;;;;;;;;;;;9.10;99.90;;;;;;5044051;28;19944;-87
2021/04/21 07:37:50;;;;;;;;;;;9.20;99.90;;;;;;5062905;28;20002;-86
2021/04/21 07:40:30;;;;;;;;;;;9.40;99.90;;;;;;5057406;28;19924;-86
2021/04/21 07:43:03;;;;;;;;;;;9.50;99.90;;;;;;5067703;28;20428;-86
2021/04/21 07:45:50;;;;;;;;;;;9.60;99.90;;;;;;5066898;28;19936;-86
2021/04/21 07:48:21;;;;;;;;;;;;;;;;;;5038829;28;19932;-86
2021/04/21 07:50:48;;;;;;;;;;;9.70;99.90;;;;;;5071705;28;19925;-88
2021/04/21 07:53:30;;;;;;;;;;;9.90;99.90;;;;;;5041921;28;19935;-88
2021/04/21 07:56:04;;;;;;;;;;;9.90;99.90;;;;;;5058764;28;19936;-88
2021/04/21 07:58:32;;;;;;;;;;;10.00;99.90;;;;;;5069574;28;19929;-88
2021/04/21 08:00:59;;;;;;;;;;;10.00;99.90;;;;;;5061727;28;19929;-85
2021/04/21 08:03:27;;;;;;;;;;;10.20;99.90;;;;;;5069337;28;19931;-87
2021/04/21 08:05:54;;;;;;;;;;;10.30;99.90;;;;;;5061701;28;20396;-89
2021/04/21 08:08:31;;;;;;;;;;;10.30;99.90;;;;;;5054883;28;20304;-88
2021/04/21 08:11:03;;;;;;;;;;;10.40;99.90;;;;;;5064344;28;20280;-87
2021/04/21 08:13:48;;;;;;;;;;;10.50;99.90;;;;;;5032277;28;19929;-88
2021/04/21 08:16:42;;;;;;;;;;;10.60;99.90;;;;;;5045603;28;19936;-87
2021/04/21 08:19:11;;;;;;;;;;;10.70;99.90;;;;;;5052164;28;20379;-88
2021/04/21 08:21:38;;;;;;;;;;;;;;;;;;5064486;28;19928;-88
2021/04/21 08:24:20;;;;;;;;;;;11.00;99.90;;;;;;5067075;28;19929;-87
2021/04/21 08:26:48;;;;;;;;;;;11.10;99.90;;;;;;5041602;28;19932;-86
2021/04/21 08:29:16;;;;;;;;;;;11.00;99.90;;;;;;5058919;28;19925;-87
2021/04/21 08:31:50;;;;;;;;;;;11.20;99.90;;;;;;5075546;28;19915;-88
2021/04/21 08:34:20;;;;;;;;;;;11.30;99.90;;;;;;5062389;28;19935;-90
2021/04/21 08:36:47;;;;;;;;;;;11.40;99.90;;;;;;5045253;28;19929;-88
2021/04/21 08:39:14;;;;;;;;;;;11.50;99.90;;;;;;5072758;28;19919;-87
2021/04/21 08:41:42;;;;;;;;;;;11.50;99.90;;;;;;5097057;28;19931;-87
2021/04/21 08:44:18;;;;;;;;;;;11.60;99.90;;;;;;5054606;28;19928;-88
2021/04/21 08:46:48;;;;;;;;;;;11.60;99.90;;;;;;5054882;28;19929;-87
2021/04/21 08:49:15;;;;;;;;;;;11.70;99.90;;;;;;5051962;28;19936;-89
2021/04/21 08:51:43;;;;;;;;;;;11.80;99.90;;;;;;5062101;28;19924;-87
2021/04/21 08:54:12;;;;;;;;;;;11.90;99.90;;;;;;5072684;28;20366;-89
2021/04/21 08:56:40;;;;;;;;;;;11.90;99.90;;;;;;5069630;28;19939;-91
2021/04/21 08:59:09;;;;;;;;;;;12.10;99.90;;;;;;5092252;28;20352;-90
2021/04/21 09:01:36;;;;;;;;;;;12.10;99.90;;;;;;5065260;28;19924;-87
2021/04/21 09:04:03;;;;;;;;;;;12.10;99.90;;;;;;5068493;28;19939;-89
2021/04/21 09:06:31;;;;;;;;;;;12.20;99.90;;;;;;5050249;28;19925;-89
2021/04/21 09:09:00;;;;;;;;;;;12.30;99.90;;;;;;5071234;28;19932;-89
2021/04/21 09:11:27;;;;;;;;;;;12.30;99.90;;;;;;5070184;28;19924;-91
2021/04/21 09:13:54;;;;;;;;;;;12.30;99.90;;;;;;5085567;28;19955;-89
2021/04/21 09:16:21;;;;;;;;;;;12.50;99.90;;;;;;5052429;28;19933;-92
2021/04/21 09:18:48;;;;;;;;;;;12.60;99.90;;;;;;5078031;28;19929;-89
2021/04/21 09:21:32;;;;;;;;;;;12.80;99.90;;;;;;5071518;28;19924;-87
2021/04/21 09:24:02;;;;;;;;;;;12.90;99.90;;;;;;5065406;28;19939;-89
2021/04/21 09:26:40;;;;;;;;;;;12.90;99.90;;;;;;5045032;28;19939;-89
2021/04/21 09:29:08;;;;;;;;;;;12.90;99.90;;;;;;5051194;28;19936;-88
2021/04/21 09:31:35;;;;;;;;;;;13.00;99.90;;;;;;5052488;28;19928;-89
2021/04/21 09:34:13;;;;;;;;;;;13.20;99.90;;;;;;5034852;28;19940;-88
2021/04/21 09:36:43;;;;;;;;;;;13.30;99.90;;;;;;5067529;28;19924;-89
2021/04/21 09:39:11;;;;;;;;;;;13.40;99.90;;;;;;5074195;28;19932;-88
2021/04/21 09:41:39;;;;;;;;;;;;;;;;;;5061937;28;19935;-88
2021/04/21 09:44:10;;;;;;;;;;;13.60;99.90;;;;;;5054918;28;19932;-89
2021/04/21 09:46:38;;;;;;;;;;;13.70;99.90;;;;;;5076038;28;19932;-89
2021/04/21 09:49:25;;;;;;;;;;;12.80;99.90;;;;;;5042861;28;19936;-88
2021/04/21 09:51:54;;;;;;;;;;;13.60;99.90;;;;;;5061466;28;20451;-87
2021/04/21 09:54:29;;;;;;;;;;;13.40;99.90;;;;;;5051818;28;19935;-89
2021/04/21 09:57:17;;;;;;;;;;;13.40;99.90;;;;;;5068059;28;19924;-88
2021/04/21 10:00:15;;;;;;;;;;;13.30;99.90;;;;;;5059122;28;19936;-90
2021/04/21 10:02:43;;;;;;;;;;;13.20;99.90;;;;;;5058257;28;19925;-89
2021/04/21 10:05:34;;;;;;;;;;;13.20;99.90;;;;;;5064484;28;19924;-89
2021/04/21 10:08:14;;;;;;;;;;;13.10;99.90;;;;;;5060654;28;19924;-88
2021/04/21 10:10:43;;;;;;;;;;;13.00;99.90;;;;;;5066609;28;19925;-88
2021/04/21 10:13:14;;;;;;;;;;;13.00;99.90;;;;;;5042571;28;19936;-89
2021/04/21 10:15:52;;;;;;;;;;;12.90;99.90;;;;;;5059740;28;19932;-87
2021/04/21 10:18:19;;;;;;;;;;;12.80;99.90;;;;;;5053810;28;19932;-88
2021/04/21 10:20:46;;;;;;;;;;;12.70;99.90;;;;;;5066243;28;19928;-84
2021/04/21 10:23:16;;;;;;;;;;;12.60;99.90;;;;;;5068610;28;19925;-88
2021/04/21 10:25:44;;;;;;;;;;;12.80;99.90;;;;;;5050433;28;19924;-88
2021/04/21 10:28:11;;;;;;;;;;;13.00;99.90;;;;;;5037853;28;19925;-88
2021/04/21 10:30:39;;;;;;;;;;;13.00;99.90;;;;;;5080499;28;20558;-89
2021/04/21 10:33:06;;;;;;;;;;;13.20;99.90;;;;;;5062858;28;19925;-88
2021/04/21 10:35:34;;;;;;;;;;;13.20;99.90;;;;;;5058753;28;19929;-88
2021/04/21 10:38:02;;;;;;;;;;;13.20;99.90;;;;;;5073767;28;19925;-88
2021/04/21 10:40:32;;;;;;;;;;;13.10;99.90;;;;;;5067323;28;19932;-88
2021/04/21 10:43:03;;;;;;;;;;;13.20;99.90;;;;;;5047440;28;19936;-88
2021/04/21 10:45:31;;;;;;;;;;;13.10;99.90;;;;;;5064035;28;19924;-88
2021/04/21 10:47:59;;;;;;;;;;;14.10;99.90;;;;;;5053247;28;20304;-89
2021/04/21 10:50:32;;;;;;;;;;;12.90;99.90;;;;;;5053040;28;19932;-88
2021/04/21 10:53:00;;;;;;;;;;;12.90;99.90;;;;;;5059173;28;20047;-89
2021/04/21 10:55:32;;;;;;;;;;;13.10;99.90;;;;;;5055164;28;19933;-90
2021/04/21 10:58:04;;;;;;;;;;;13.10;99.90;;;;;;5052201;28;19932;-89
2021/04/21 11:00:58;;;;;;;;;;;13.50;99.90;;;;;;5051331;28;19925;-91
2021/04/21 11:03:41;;;;;;;;;;;13.40;99.90;;;;;;5045669;28;19925;-92
2021/04/21 11:06:10;;;;;;;;;;;13.40;99.90;;;;;;5024294;28;19929;-92
2021/04/21 11:09:00;;;;;;;;;;;13.60;99.90;;;;;;5033997;28;19936;-89
2021/04/21 11:11:42;;;;;;;;;;;13.40;99.90;;;;;;5016920;28;19932;-89
2021/04/21 11:14:41;;;;;;;;;;;13.60;99.90;;;;;;5058905;28;19932;-88
2021/04/21 11:17:12;;;;;;;;;;;13.70;99.90;;;;;;5049682;28;19924;-88
2021/04/21 11:20:08;;;;;;;;;;;13.60;99.90;;;;;;5034707;28;19924;-90
2021/04/21 11:22:49;;;;;;;;;;;13.60;99.90;;;;;;5071821;28;19933;-89
2021/04/21 11:25:29;;;;;;;;;;;14.00;99.90;;;;;;5018584;28;19925;-88
2021/04/21 11:27:58;;;;;;;;;;;13.50;99.90;;;;;;5027107;28;19933;-88
2021/04/21 11:30:30;;;;;;;;;;;13.20;99.90;;;;;;5044609;28;20391;-89
2021/04/21 11:32:58;;;;;;;;;;;13.10;99.90;;;;;;5042078;28;19925;-88
2021/04/21 11:35:29;;;;;;;;;;;13.00;99.90;;;;;;5049597;28;19933;-89
2021/04/21 11:37:59;;;;;;;;;;;12.90;99.90;;;;;;5040039;28;19929;-92
2021/04/21 11:40:33;;;;;;;;;;;14.80;99.90;;;;;;5031582;28;19926;-90
2021/04/21 11:43:17;;;;;;;;;;;12.80;99.90;;;;;;5039113;28;19936;-92
2021/04/21 11:45:44;;;;;;;;;;;12.60;99.90;;;;;;5028296;28;19925;-92
2021/04/21 11:48:12;;;;;;;;;;;12.50;99.90;;;;;;5035359;28;19956;-91
2021/04/21 11:50:41;;;;;;;;;;;12.50;99.90;;;;;;5038766;28;19939;-90
2021/04/21 11:53:13;;;;;;;;;;;12.40;99.90;;;;;;5043557;28;20121;-90
2021/04/21 11:55:55;;;;;;;;;;;12.40;99.90;;;;;;5056882;28;19928;-90
2021/04/21 11:58:24;;;;;;;;;;;12.50;99.90;;;;;;5058674;28;19929;-90
2021/04/21 12:00:55;;;;;;;;;;;12.20;99.90;;;;;;5047329;28;19921;-91
2021/04/21 12:03:28;;;;;;;;;;;12.20;99.90;;;;;;5067037;28;19932;-92
2021/04/21 12:05:57;;;;;;;;;;;12.20;99.90;;;;;;5080113;28;19931;-93
2021/04/21 12:08:26;;;;;;;;;;;12.20;99.90;;;;;;5039872;28;19929;-90
2021/04/21 12:10:55;;;;;;;;;;;12.30;99.90;;;;;;5064463;28;19932;-93
2021/04/21 12:13:26;;;;;;;;;;;12.20;99.90;;;;;;5045883;28;19925;-91
2021/04/21 12:15:57;;;;;;;;;;;12.20;99.90;;;;;;5077135;28;19924;-92
2021/04/21 12:18:28;;;;;;;;;;;12.30;99.90;;;;;;5068569;28;19924;-90
2021/04/21 12:20:56;;;;;;;;;;;12.30;99.90;;;;;;5059052;28;19913;-89
2021/04/21 12:23:27;;;;;;;;;;;12.30;99.90;;;;;;5067524;28;19932;-92
2021/04/21 12:25:54;;;;;;;;;;;12.20;99.90;;;;;;5064358;28;19932;-90
2021/04/21 12:28:21;;;;;;;;;;;12.00;99.90;;;;;;5040644;28;19929;-91
2021/04/21 12:30:58;;;;;;;;;;;12.20;99.90;;;;;;5046748;28;19925;-90
2021/04/21 12:33:26;;;;;;;;;;;12.20;99.90;;;;;;5062658;28;19936;-87
2021/04/21 12:35:55;;;;;;;;;;;12.20;99.90;;;;;;5073288;28;20391;-85
2021/04/21 12:38:29;;;;;;;;;;;12.30;99.90;;;;;;5054344;28;19936;-84
2021/04/21 12:40:56;;;;;;;;;;;12.10;99.90;;;;;;5074911;28;19943;-83
2021/04/21 12:43:34;;;;;;;;;;;12.40;99.90;;;;;;5073807;28;19931;-84
2021/04/21 12:46:14;;;;;;;;;;;12.40;99.90;;;;;;5078461;28;19925;-85
2021/04/21 12:49:01;;;;;;;;;;;12.80;99.90;;;;;;5072215;28;19932;-84
2021/04/21 12:51:31;;;;;;;;;;;12.80;99.90;;;;;;5058237;28;19929;-85
2021/04/21 12:53:59;;;;;;;;;;;13.10;99.90;;;;;;5070645;28;19949;-84
2021/04/21 12:56:37;;;;;;;;;;;13.20;99.90;;;;;;5062748;28;19924;-86
2021/04/21 12:59:15;;;;;;;;;;;13.50;99.90;;;;;;5058305;28;19936;-86
2021/04/21 13:01:42;;;;;;;;;;;13.80;99.90;;;;;;5059603;28;19924;-84
2021/04/21 13:04:12;;;;;;;;;;;14.00;99.90;;;;;;5054101;28;19940;-85
2021/04/21 13:06:45;;;;;;;;;;;14.10;99.90;;;;;;5063719;28;19928;-85
2021/04/21 13:09:15;;;;;;;;;;;14.20;99.90;;;;;;5058064;28;19925;-86
2021/04/21 13:11:44;;;;;;;;;;;14.30;99.90;;;;;;5052634;28;19948;-85
2021/04/21 13:14:12;;;;;;;;;;;14.40;99.90;;;;;;5066525;28;19925;-85
2021/04/21 13:16:40;;;;;;;;;;;14.60;99.90;;;;;;5047982;28;19932;-86
2021/04/21 13:19:25;;;;;;;;;;;15.20;99.90;;;;;;5063045;28;19936;-91
2021/04/21 13:21:56;;;;;;;;;;;15.50;99.90;;;;;;4712433;28;9999631;-92
2021/04/21 13:24:24;;;;;;;;;;;15.70;99.50;;;;;;5052975;28;19931;-93
2021/04/21 13:26:56;;;;;;;;;;;16.20;97.60;;;;;;5032962;28;20296;-91
2021/04/21 13:29:36;;;;;;;;;;;16.30;97.30;;;;;;5050913;28;19936;-92
2021/04/21 13:32:10;;;;;;;;;;;16.20;97.80;;;;;;5043986;28;19929;-91
2021/04/21 13:34:40;;;;;;;;;;;16.50;96.90;;;;;;5050031;28;19925;-91
2021/04/21 13:37:08;;;;;;;;;;;16.30;96.30;;;;;;5050822;28;19924;-93
2021/04/21 13:39:55;;;;;;;;;;;16.20;96.10;;;;;;5072668;28;20245;-92
2021/04/21 13:42:22;;;;;;;;;;;16.40;94.80;;;;;;5065955;28;19912;-93
2021/04/21 13:48:09;;;;;;;;;;;16.70;94.30;;;;;;5059521;28;19924;-89
2021/04/21 13:50:37;;;;;;;;;;;17.00;94.20;;;;;;5066033;28;19931;-88
2021/04/21 13:53:05;;;;;;;;;;;17.10;93.30;;;;;;5078203;28;19932;-93
2021/04/21 13:55:32;;;;;;;;;;;17.40;92.50;;;;;;5055731;28;19913;-92
2021/04/21 13:58:00;;;;;;;;;;;17.60;92.20;;;;;;5069335;28;22499;-83
2021/04/21 14:00:27;;;;;;;;;;;17.80;91.90;;;;;;5059645;28;20470;-85
2021/04/21 14:02:54;;;;;;;;;;;18.10;89.80;;;;;;5057745;28;19929;-83
2021/04/21 14:05:22;;;;;;;;;;;18.40;89.90;;;;;;5056893;28;19932;-84
2021/04/21 14:07:49;;;;;;;;;;;18.50;88.80;;;;;;5066121;28;19935;-82
2021/04/21 14:10:17;;;;;;;;;;;18.60;86.50;;;;;;5054868;28;20010;-83
2021/04/21 14:12:44;;;;;;;;;;;18.70;86.80;;;;;;5055575;28;20425;-84
2021/04/21 14:15:11;;;;;;;;;;;18.60;87.70;;;;;;5055484;28;19925;-83
2021/04/21 14:17:38;;;;;;;;;;;19.10;85.80;;;;;;5049583;28;19924;-91
2021/04/21 14:20:07;;;;;;;;;;;19.10;84.60;;;;;;5058664;28;20287;-81
2021/04/21 14:22:34;;;;;;;;;;;19.40;83.60;;;;;;5062278;28;20483;-81
2021/04/21 14:25:02;;;;;;;;;;;19.50;81.80;;;;;;5056947;28;19932;-83
2021/04/21 14:27:29;;;;;;;;;;;19.80;80.60;;;;;;5056399;28;19928;-82
2021/04/21 14:29:56;;;;;;;;;;;19.90;79.50;;;;;;5057419;28;19933;-81
2021/04/21 14:32:25;;;;;;;;;;;20.30;79.20;;;;;;5042266;28;19932;-84
2021/04/21 14:34:52;;;;;;;;;;;19.20;78.60;;;;;;5048099;28;20376;-83
2021/04/21 14:37:19;;;;;;;;;;;20.20;79.00;;;;;;5060278;28;19929;-84
2021/04/21 14:39:46;;;;;;;;;;;20.20;77.50;;;;;;5055248;28;19933;-83
2021/04/21 14:42:13;;;;;;;;;;;20.30;77.60;;;;;;5054816;28;19933;-84
2021/04/21 14:44:40;;;;;;;;;;;20.40;76.80;;;;;;5056817;28;19935;-87
2021/04/21 14:47:07;;;;;;;;;;;20.50;75.50;;;;;;5057871;28;20602;-84
2021/04/21 14:49:35;;;;;;;;;;;20.70;74.00;;;;;;5055908;28;19929;-83
2021/04/21 14:52:04;;;;;;;;;;;20.60;74.10;;;;;;5055854;28;19932;-84
2021/04/21 14:54:31;;;;;;;;;;;20.90;72.60;;;;;;5056315;28;19932;-82
2021/04/21 14:56:58;;;;;;;;;;;21.00;72.70;;;;;;5055497;28;20071;-84